Time;durP1;ratioP1;P1;durP2;ratioP2;P2;SDS_P1;SDS_P2;PMS_P1;PMS_P2;Temp;Humidity;BMP_temperature;BMP_pressure;BME280_temperature;BME280_humidity;BME280_pressure;Samples;Min_cycle;Max_cycle;Signal;HPM_P1;HPM_P2
2021/01/24 00:00:47;;;;;;;32.23;11.43;;;3.50;17.40;;;;;;4910134;28;20230;-77
2021/01/24 00:03:09;;;;;;;17.77;8.93;;;3.50;21.10;;;;;;4913834;28;20191;-77
2021/01/24 00:05:31;;;;;;;13.57;8.17;;;3.70;1.00;;;;;;4914508;28;20184;-75
2021/01/24 00:07:54;;;;;;;13.80;7.87;;;;;;;;;;4913796;28;20612;-76
2021/01/24 00:10:18;;;;;;;16.63;8.30;;;;;;;;;;4913997;28;20658;-76
2021/01/24 00:12:40;;;;;;;20.70;8.97;;;;;;;;;;4895913;28;20553;-76
2021/01/24 00:15:03;;;;;;;14.80;8.40;;;3.50;1.00;;;;;;4896265;28;20193;-77
2021/01/24 00:17:26;;;;;;;14.83;8.23;;;3.50;24.80;;;;;;4915351;28;20312;-77
2021/01/24 00:19:48;;;;;;;20.50;9.67;;;;;;;;;;4898873;28;20218;-76
2021/01/24 00:22:11;;;;;;;21.07;10.67;;;;;;;;;;4916068;28;20243;-77
2021/01/24 00:24:33;;;;;;;19.20;10.77;;;;;;;;;;4898636;28;20249;-77
2021/01/24 00:26:55;;;;;;;24.57;13.90;;;;;;;;;;4898784;28;20208;-76
2021/01/24 00:29:17;;;;;;;28.30;17.03;;;3.60;32.60;;;;;;4917524;28;20206;-76
2021/01/24 00:31:39;;;;;;;39.40;19.20;;;3.50;32.80;;;;;;4917729;28;20185;-77
2021/01/24 00:34:03;;;;;;;34.80;19.60;;;3.40;2.00;;;;;;4917356;28;20218;-76
2021/01/24 00:36:25;;;;;;;28.83;16.10;;;;;;;;;;4916494;28;20257;-77
2021/01/24 00:38:47;;;;;;;31.87;16.40;;;;;;;;;;4917747;28;20707;-77
2021/01/24 00:41:10;;;;;;;27.27;15.67;;;3.40;32.30;;;;;;4882240;28;20254;-77
2021/01/24 00:43:32;;;;;;;25.07;14.27;;;3.20;18.40;;;;;;4883018;28;20223;-76
2021/01/24 00:45:55;;;;;;;22.07;14.03;;;;;;;;;;4918387;28;20657;-77
2021/01/24 00:48:17;;;;;;;24.00;12.80;;;3.40;48.80;;;;;;4907554;28;20227;-77
2021/01/24 00:50:40;;;;;;;28.57;14.23;;;3.30;17.10;;;;;;4915595;28;20241;-77
2021/01/24 00:53:02;;;;;;;22.47;12.60;;;3.30;49.30;;;;;;4915892;28;20199;-77
2021/01/24 00:55:24;;;;;;;24.17;13.47;;;3.20;41.70;;;;;;4915877;28;20665;-77
2021/01/24 00:57:46;;;;;;;24.20;13.00;;;3.00;53.00;;;;;;4915666;28;20204;-76
2021/01/24 01:00:10;;;;;;;29.47;14.43;;;3.20;21.30;;;;;;4916777;28;20237;-77
2021/01/24 01:02:32;;;;;;;24.43;12.33;;;3.40;55.20;;;;;;4914747;28;20630;-77
2021/01/24 01:04:54;;;;;;;20.43;11.63;;;3.30;29.80;;;;;;4898664;28;20196;-76
2021/01/24 01:07:17;;;;;;;21.07;11.33;;;3.40;57.60;;;;;;4914670;28;20223;-77
2021/01/24 01:09:39;;;;;;;22.17;12.13;;;3.20;57.10;;;;;;4916693;28;20199;-77
2021/01/24 01:12:01;;;;;;;20.10;11.97;;;3.30;60.70;;;;;;4917150;28;20237;-77
2021/01/24 01:14:23;;;;;;;21.70;12.13;;;;;;;;;;4915325;28;20268;-77
2021/01/24 01:16:45;;;;;;;25.40;12.37;;;;;;;;;;4914864;28;20628;-77
2021/01/24 01:19:07;;;;;;;21.30;11.93;;;3.20;38.20;;;;;;4914904;28;20204;-77
2021/01/24 01:21:30;;;;;;;21.57;11.67;;;3.30;61.20;;;;;;4898645;28;20222;-77
2021/01/24 01:23:53;;;;;;;22.30;12.47;;;3.30;61.90;;;;;;4897793;28;20246;-77
2021/01/24 01:26:15;;;;;;;20.47;11.77;;;3.50;65.00;;;;;;4915162;28;20222;-77
2021/01/24 01:28:37;;;;;;;24.53;13.10;;;3.10;47.00;;;;;;4915687;28;20637;-77
2021/01/24 01:30:59;;;;;;;22.87;13.23;;;3.60;67.80;;;;;;4915270;28;20241;-77
2021/01/24 01:33:21;;;;;;;24.90;13.40;;;3.20;31.70;;;;;;4916467;28;20206;-77
2021/01/24 01:35:43;;;;;;;24.60;13.20;;;3.20;70.60;;;;;;4914993;28;20192;-77
2021/01/24 01:38:06;;;;;;;22.80;13.97;;;;;;;;;;4916377;28;20188;-78
2021/01/24 01:40:29;;;;;;;22.90;13.50;;;3.20;34.60;;;;;;4916737;28;20188;-76
2021/01/24 01:42:51;;;;;;;30.40;15.07;;;3.30;46.00;;;;;;4913644;28;20196;-77
2021/01/24 01:45:13;;;;;;;23.43;13.73;;;;;;;;;;4914664;28;20241;-76
2021/01/24 01:47:36;;;;;;;22.70;14.17;;;;;;;;;;4915632;28;20204;-77
2021/01/24 01:49:58;;;;;;;26.70;14.80;;;3.10;62.80;;;;;;4898183;28;20188;-77
2021/01/24 01:52:23;;;;;;;27.70;15.17;;;3.00;58.10;;;;;;4897799;28;20556;-77
2021/01/24 01:54:47;;;;;;;31.30;16.73;;;3.50;70.40;;;;;;4914328;28;20192;-77
2021/01/24 01:57:10;;;;;;;30.67;17.30;;;3.20;70.60;;;;;;4914688;28;20211;-78
2021/01/24 01:59:32;;;;;;;25.93;16.20;;;3.30;70.10;;;;;;4915970;28;20207;-77
2021/01/24 02:02:03;;;;;;;22.83;14.90;;;3.20;37.60;;;;;;4913048;28;20265;-76
2021/01/24 02:04:35;;;;;;;24.87;15.20;;;2.50;71.80;;;;;;4897451;28;20230;-77
2021/01/24 02:07:02;;;;;;;24.33;14.97;;;3.20;31.90;;;;;;4893933;28;20231;-77
2021/01/24 02:09:33;;;;;;;24.67;15.87;;;3.20;46.30;;;;;;4914735;28;20213;-77
2021/01/24 02:12:05;;;;;;;26.30;17.17;;;3.20;32.80;;;;;;4914810;28;20180;-77
2021/01/24 02:14:30;;;;;;;25.47;16.37;;;3.10;56.80;;;;;;4914398;28;20652;-77
2021/01/24 02:16:53;;;;;;;29.63;16.77;;;3.10;62.60;;;;;;4925507;28;20284;-76
2021/01/24 02:19:24;;;;;;;21.03;13.27;;;3.20;60.30;;;;;;4915311;28;20188;-77
2021/01/24 02:21:47;;;;;;;24.93;12.93;;;3.10;25.10;;;;;;4913908;28;20234;-77
2021/01/24 02:24:12;;;;;;;23.37;13.23;;;3.10;59.70;;;;;;4895675;28;20193;-77
2021/01/24 02:26:41;;;;;;;20.17;11.87;;;3.20;60.90;;;;;;4897255;28;20212;-76
2021/01/24 02:29:15;;;;;;;21.23;12.60;;;3.10;27.90;;;;;;4915277;28;20232;-76
2021/01/24 02:31:39;;;;;;;23.30;13.60;;;3.10;67.40;;;;;;4909588;28;20196;-78
2021/01/24 02:34:03;;;;;;;20.13;12.90;;;3.10;55.40;;;;;;4914242;28;20557;-77
2021/01/24 02:36:27;;;;;;;18.30;11.97;;;3.20;64.00;;;;;;4915157;28;20184;-77
2021/01/24 02:38:50;;;;;;;23.63;12.60;;;3.20;63.50;;;;;;4915474;28;20185;-77
2021/01/24 02:41:14;;;;;;;20.00;12.03;;;3.00;58.70;;;;;;4912474;28;20204;-76
2021/01/24 02:43:37;;;;;;;19.73;12.17;;;2.40;59.40;;;;;;4915365;28;20296;-78
2021/01/24 02:46:00;;;;;;;18.20;11.33;;;;;;;;;;4915824;28;20188;-76
2021/01/24 02:48:23;;;;;;;20.63;11.13;;;3.60;73.30;;;;;;4913476;28;20231;-77
2021/01/24 02:50:47;;;;;;;20.97;11.20;;;2.90;37.80;;;;;;4896965;28;20654;-77
2021/01/24 02:53:11;;;;;;;17.47;10.77;;;2.90;38.60;;;;;;4897247;28;20192;-77
2021/01/24 02:55:34;;;;;;;17.90;10.50;;;2.90;38.90;;;;;;4914063;28;20992;-77
2021/01/24 02:57:56;;;;;;;17.60;10.70;;;2.90;42.00;;;;;;4915525;28;20179;-76
2021/01/24 03:00:20;;;;;;;20.10;12.27;;;2.90;44.50;;;;;;4913432;28;20296;-76
2021/01/24 03:02:43;;;;;;;24.60;12.20;;;2.90;82.60;;;;;;4913400;28;20540;-76
2021/01/24 03:05:07;;;;;;;18.03;11.30;;;2.90;45.10;;;;;;4914932;28;20226;-77
2021/01/24 03:07:30;;;;;;;18.73;11.87;;;2.60;63.30;;;;;;4913787;28;20763;-76
2021/01/24 03:09:52;;;;;;;24.20;12.60;;;3.00;56.10;;;;;;4914803;28;20229;-76
2021/01/24 03:12:16;;;;;;;18.20;11.30;;;3.00;60.80;;;;;;4895635;28;20255;-77
2021/01/24 03:14:39;;;;;;;23.63;11.87;;;2.70;78.10;;;;;;4896204;28;20756;-77
2021/01/24 03:17:03;;;;;;;19.47;11.63;;;2.80;50.70;;;;;;4896508;28;20246;-77
2021/01/24 03:19:28;;;;;;;18.90;12.03;;;2.90;69.00;;;;;;4912907;28;20653;-78
2021/01/24 03:21:52;;;;;;;24.77;12.63;;;2.70;90.30;;;;;;4913019;28;20200;-77
2021/01/24 03:24:17;;;;;;;16.40;10.60;;;2.90;52.50;;;;;;4913026;28;20273;-77
2021/01/24 03:26:39;;;;;;;20.73;11.87;;;2.90;90.40;;;;;;4913181;28;20786;-77
2021/01/24 03:29:01;;;;;;;19.30;12.07;;;;;;;;;;4940625;27;20672;-77
2021/01/24 03:31:23;;;;;;;22.67;13.43;;;3.00;89.30;;;;;;4914654;28;20196;-77
2021/01/24 03:33:46;;;;;;;22.77;12.23;;;;;;;;;;4914200;28;20237;-76
2021/01/24 03:36:08;;;;;;;17.50;11.20;;;2.90;90.40;;;;;;4912131;28;20750;-75
2021/01/24 03:38:31;;;;;;;19.40;11.77;;;3.50;90.60;;;;;;4914711;28;20225;-75
2021/01/24 03:40:54;;;;;;;16.83;11.20;;;;;;;;;;4913144;28;20191;-77
2021/01/24 03:43:16;;;;;;;17.73;10.87;;;2.80;72.70;;;;;;4911990;28;20204;-76
2021/01/24 03:45:38;;;;;;;21.67;12.33;;;2.30;90.20;;;;;;4913136;28;20225;-76
2021/01/24 03:48:00;;;;;;;19.97;11.80;;;2.70;88.20;;;;;;4914467;28;20229;-75
2021/01/24 03:50:22;;;;;;;17.90;11.90;;;2.70;48.80;;;;;;4896510;28;20258;-74
2021/01/24 03:52:45;;;;;;;21.73;12.17;;;;;;;;;;4918187;28;20527;-76
2021/01/24 03:55:09;;;;;;;19.10;12.07;;;2.90;84.50;;;;;;4917620;28;20292;-75
2021/01/24 03:57:31;;;;;;;18.80;11.43;;;2.60;69.10;;;;;;4918579;28;20245;-76
2021/01/24 03:59:53;;;;;;;17.97;11.30;;;2.70;84.80;;;;;;4900021;28;20193;-76
2021/01/24 04:02:16;;;;;;;18.17;11.87;;;;;;;;;;4924969;28;20204;-76
2021/01/24 04:04:38;;;;;;;22.90;12.90;;;2.70;80.10;;;;;;4924705;28;20272;-77
2021/01/24 04:07:00;;;;;;;19.63;12.10;;;2.80;59.00;;;;;;4901548;28;20224;-76
2021/01/24 04:09:22;;;;;;;22.17;13.80;;;2.90;88.60;;;;;;4917071;28;20200;-76
2021/01/24 04:11:45;;;;;;;26.90;15.53;;;2.70;65.40;;;;;;4918245;28;20241;-76
2021/01/24 04:14:07;;;;;;;21.77;13.90;;;2.70;55.90;;;;;;4916669;28;20184;-77
2021/01/24 04:16:29;;;;;;;20.07;12.30;;;2.70;90.50;;;;;;4918054;28;20207;-77
2021/01/24 04:18:51;;;;;;;23.63;12.57;;;2.70;90.50;;;;;;4916012;28;20203;-77
2021/01/24 04:21:13;;;;;;;20.47;12.63;;;;;;;;;;4917844;28;20245;-76
2021/01/24 04:23:36;;;;;;;19.63;12.40;;;;;;;;;;4917528;28;20219;-76
2021/01/24 04:25:58;;;;;;;18.77;11.80;;;2.90;92.50;;;;;;4915303;28;20188;-77
2021/01/24 04:28:21;;;;;;;20.87;12.53;;;2.70;91.20;;;;;;4917413;28;20253;-77
2021/01/24 04:30:43;;;;;;;24.97;13.87;;;2.80;74.80;;;;;;4917163;28;20180;-77
2021/01/24 04:33:07;;;;;;;22.73;13.43;;;2.80;59.50;;;;;;4917325;28;20241;-75
2021/01/24 04:35:29;;;;;;;22.53;13.70;;;3.00;95.70;;;;;;4891719;28;20294;-76
2021/01/24 04:37:51;;;;;;;26.40;14.33;;;2.80;95.30;;;;;;4916722;28;20665;-77
2021/01/24 04:40:13;;;;;;;23.50;14.07;;;2.60;96.20;;;;;;4917567;28;20707;-78
2021/01/24 04:42:37;;;;;;;23.50;14.67;;;2.80;97.00;;;;;;4899398;28;20193;-77
2021/01/24 04:45:00;;;;;;;24.40;15.80;;;2.80;86.10;;;;;;4883108;28;20591;-77
2021/01/24 04:47:24;;;;;;;23.50;14.43;;;2.80;61.10;;;;;;4915638;28;20770;-77
2021/01/24 04:49:47;;;;;;;25.00;15.30;;;2.90;74.90;;;;;;4917368;28;20184;-77
2021/01/24 04:52:10;;;;;;;24.40;15.00;;;;;;;;;;4916742;28;20254;-77
2021/01/24 04:54:35;;;;;;;23.60;15.43;;;3.20;98.00;;;;;;4917785;28;20275;-76
2021/01/24 04:56:59;;;;;;;22.80;15.10;;;2.70;98.90;;;;;;4915665;28;20188;-78
2021/01/24 04:59:21;;;;;;;25.23;15.33;;;2.70;99.90;;;;;;4899297;28;20251;-77
2021/01/24 05:01:46;;;;;;;30.27;16.17;;;2.40;81.00;;;;;;4915505;28;20229;-75
2021/01/24 05:04:08;;;;;;;26.93;15.23;;;2.80;99.90;;;;;;4897502;28;20185;-77
2021/01/24 05:06:30;;;;;;;24.30;14.90;;;2.70;99.90;;;;;;4915834;28;20196;-77
2021/01/24 05:08:52;;;;;;;27.80;15.87;;;2.70;99.90;;;;;;4915513;28;20273;-76
2021/01/24 05:11:15;;;;;;;24.37;14.73;;;2.70;92.80;;;;;;4916791;28;20192;-76
2021/01/24 05:13:37;;;;;;;25.67;14.83;;;3.60;99.90;;;;;;4898617;28;20241;-77
2021/01/24 05:16:00;;;;;;;21.93;13.50;;;2.80;95.40;;;;;;4916030;28;20265;-78
2021/01/24 05:18:23;;;;;;;23.47;13.97;;;2.90;99.90;;;;;;4915471;28;20284;-77
2021/01/24 05:20:46;;;;;;;30.77;15.13;;;;;;;;;;4898760;28;20191;-77
2021/01/24 05:23:10;;;;;;;25.73;15.43;;;2.50;99.90;;;;;;4915308;28;20220;-77
2021/01/24 05:25:33;;;;;;;22.97;14.10;;;2.60;99.90;;;;;;4915701;28;20614;-76
2021/01/24 05:27:55;;;;;;;22.77;14.30;;;2.50;99.90;;;;;;4915319;28;20204;-77
2021/01/24 05:30:22;;;;;;;24.33;14.70;;;2.60;93.90;;;;;;4916615;28;20188;-76
2021/01/24 05:32:45;;;;;;;31.90;15.93;;;2.60;93.60;;;;;;4916161;28;20213;-75
2021/01/24 05:35:10;;;;;;;26.13;15.70;;;2.60;94.80;;;;;;4896388;28;20722;-77
2021/01/24 05:37:37;;;;;;;23.37;15.13;;;3.10;99.90;;;;;;4941412;27;20252;-76
2021/01/24 05:39:59;;;;;;;24.90;15.47;;;2.40;99.90;;;;;;4916519;28;20184;-78
2021/01/24 05:42:25;;;;;;;23.47;14.33;;;2.40;96.20;;;;;;4898060;28;20723;-78
2021/01/24 05:44:47;;;;;;;27.80;14.83;;;2.70;99.90;;;;;;4916454;28;20188;-78
2021/01/24 05:47:11;;;;;;;24.47;15.13;;;2.60;99.90;;;;;;4939959;27;20725;-76
2021/01/24 05:49:33;;;;;;;25.10;16.00;;;2.60;99.90;;;;;;4916122;28;20245;-77
2021/01/24 05:52:04;;;;;;;26.37;16.33;;;2.80;99.90;;;;;;4914195;28;20619;-78
2021/01/24 05:54:38;;;;;;;25.37;15.47;;;3.10;99.90;;;;;;4910519;28;20564;-78
2021/01/24 05:57:00;;;;;;;29.00;15.50;;;2.80;99.90;;;;;;4916515;28;20184;-78
2021/01/24 05:59:22;;;;;;;27.57;16.97;;;;;;;;;;4916103;28;20188;-78
2021/01/24 06:01:45;;;;;;;32.47;17.77;;;2.80;97.90;;;;;;4895408;28;20650;-78
2021/01/24 06:04:07;;;;;;;26.30;17.00;;;;;;;;;;4914664;28;20192;-76
2021/01/24 06:06:29;;;;;;;32.23;18.97;;;2.80;99.60;;;;;;4916003;28;20609;-77
2021/01/24 06:08:52;;;;;;;36.57;18.73;;;2.80;94.20;;;;;;4915365;28;20238;-77
2021/01/24 06:11:16;;;;;;;22.53;15.27;;;2.70;93.50;;;;;;4909611;28;20192;-76
2021/01/24 06:13:39;;;;;;;27.43;16.03;;;3.00;99.90;;;;;;4914521;28;20225;-78
2021/01/24 06:16:06;;;;;;;27.90;16.13;;;3.20;99.90;;;;;;4914041;28;20196;-77
2021/01/24 06:18:36;;;;;;;25.90;16.27;;;2.30;99.90;;;;;;4875815;28;20748;-77
2021/01/24 06:21:02;;;;;;;27.10;15.83;;;2.80;99.90;;;;;;4915489;28;20308;-77
2021/01/24 06:23:29;;;;;;;25.93;15.43;;;2.80;94.10;;;;;;4914265;28;20766;-79
2021/01/24 06:25:59;;;;;;;31.10;15.93;;;2.30;99.90;;;;;;4915663;28;20176;-76
2021/01/24 06:28:24;;;;;;;21.93;14.00;;;3.00;99.90;;;;;;4897165;28;21731;-76
2021/01/24 06:30:47;;;;;;;27.00;15.67;;;3.00;99.90;;;;;;4919628;28;20265;-76
2021/01/24 06:33:14;;;;;;;26.30;15.10;;;2.80;95.30;;;;;;4915620;28;20188;-79
2021/01/24 06:35:44;;;;;;;24.50;15.23;;;2.80;99.90;;;;;;4915829;28;20229;-77
2021/01/24 06:38:07;;;;;;;28.37;14.73;;;;;;;;;;4914544;28;20212;-78
2021/01/24 06:40:30;;;;;;;24.93;14.70;;;3.00;99.90;;;;;;4907337;28;20218;-79
2021/01/24 06:43:02;;;;;;;26.47;14.73;;;2.90;91.80;;;;;;4896858;28;20190;-77
2021/01/24 06:45:41;;;;;;;22.23;14.90;;;2.70;99.90;;;;;;4913025;28;20204;-78
2021/01/24 06:48:03;;;;;;;28.10;17.10;;;2.80;99.90;;;;;;4915386;28;20203;-77
2021/01/24 06:50:40;;;;;;;23.90;15.50;;;2.90;90.00;;;;;;4914066;28;20196;-79
2021/01/24 06:53:04;;;;;;;28.40;17.63;;;2.90;91.10;;;;;;4913857;28;20196;-77
2021/01/24 06:55:27;;;;;;;25.40;14.93;;;2.60;90.40;;;;;;4913852;28;20673;-78
2021/01/24 06:57:49;;;;;;;34.40;18.23;;;;;;;;;;4913860;28;20192;-78
2021/01/24 07:00:21;;;;;;;25.43;15.27;;;3.00;49.60;;;;;;4915063;28;20253;-78
2021/01/24 07:02:43;;;;;;;32.67;17.07;;;3.00;45.80;;;;;;4913375;28;20192;-79
2021/01/24 07:05:18;;;;;;;26.30;16.03;;;2.90;44.90;;;;;;4915082;28;20184;-78
2021/01/24 07:07:41;;;;;;;30.17;16.47;;;2.70;76.00;;;;;;4910700;28;20284;-77
2021/01/24 07:10:31;;;;;;;23.57;14.50;;;2.10;31.50;;;;;;4914962;28;20548;-77
2021/01/24 07:12:53;;;;;;;26.23;15.70;;;;;;;;;;4912443;28;20218;-76
2021/01/24 07:15:24;;;;;;;27.63;15.57;;;2.70;31.10;;;;;;4914701;28;20244;-78
2021/01/24 07:17:55;;;;;;;25.57;14.70;;;2.70;29.10;;;;;;4914208;28;20308;-78
2021/01/24 07:20:17;;;;;;;24.80;15.17;;;2.90;68.40;;;;;;4890051;28;20575;-77
2021/01/24 07:22:39;;;;;;;29.80;15.57;;;;;;;;;;4926524;28;20261;-78
2021/01/24 07:25:02;;;;;;;24.83;15.10;;;2.50;82.50;;;;;;4921337;28;20180;-78
2021/01/24 07:27:27;;;;;;;27.53;16.77;;;2.50;46.00;;;;;;4895567;28;20204;-78
2021/01/24 07:29:49;;;;;;;29.67;18.73;;;3.10;89.50;;;;;;4913529;28;20321;-78
2021/01/24 07:32:14;;;;;;;31.53;18.23;;;2.50;91.00;;;;;;4914198;28;20673;-77
2021/01/24 07:34:36;;;;;;;30.60;18.47;;;2.60;91.50;;;;;;4914224;28;20188;-77
2021/01/24 07:36:59;;;;;;;29.33;19.47;;;2.70;87.80;;;;;;4914732;28;20180;-79
2021/01/24 07:39:21;;;;;;;26.37;17.03;;;2.50;78.70;;;;;;4913145;28;20282;-78
2021/01/24 07:41:44;;;;;;;31.63;16.70;;;;;;;;;;4879678;28;20192;-77
2021/01/24 07:44:07;;;;;;;25.83;16.13;;;2.40;30.80;;;;;;4896432;28;20716;-79
2021/01/24 07:46:29;;;;;;;23.83;14.57;;;1.70;60.30;;;;;;4896879;28;20286;-78
2021/01/24 07:48:52;;;;;;;31.43;16.53;;;2.50;38.90;;;;;;4912970;28;20305;-79
2021/01/24 07:51:14;;;;;;;22.47;14.37;;;;;;;;;;4914376;28;20245;-79
2021/01/24 07:53:36;;;;;;;25.13;15.60;;;3.20;59.20;;;;;;4913285;28;20196;-78
2021/01/24 07:56:02;;;;;;;24.73;16.73;;;2.60;51.70;;;;;;4896353;28;20246;-78
2021/01/24 07:58:25;;;;;;;27.77;18.57;;;2.60;78.80;;;;;;4896129;28;20286;-79
2021/01/24 08:00:47;;;;;;;47.50;22.93;;;;;;;;;;4912179;28;20221;-77
2021/01/24 08:03:09;;;;;;;31.53;19.17;;;3.30;54.70;;;;;;4913915;28;20225;-79
2021/01/24 08:05:33;;;;;;;35.00;20.77;;;3.00;76.70;;;;;;4913299;28;20207;-79
2021/01/24 08:07:56;;;;;;;36.10;22.07;;;2.80;44.50;;;;;;4911506;28;20227;-79
2021/01/24 08:10:18;;;;;;;42.53;25.60;;;;;;;;;;4895994;28;20254;-79
2021/01/24 08:12:41;;;;;;;38.60;21.50;;;;;;;;;;4879319;28;20184;-80
2021/01/24 08:15:04;;;;;;;32.47;19.37;;;3.30;38.20;;;;;;4912500;28;20222;-76
2021/01/24 08:17:27;;;;;;;33.07;20.03;;;4.20;50.40;;;;;;4913931;28;20225;-80
2021/01/24 08:19:50;;;;;;;32.60;18.47;;;3.50;1.30;;;;;;4895386;28;20193;-79
2021/01/24 08:22:13;;;;;;;25.30;15.63;;;3.60;1.00;;;;;;4912694;28;20770;-79
2021/01/24 08:24:36;;;;;;;25.17;16.53;;;;;;;;;;4912833;28;20218;-79
2021/01/24 08:26:58;;;;;;;24.20;14.43;;;;;;;;;;4912474;28;20237;-78
2021/01/24 08:29:21;;;;;;;22.83;13.10;;;;;;;;;;4912257;28;20257;-79
2021/01/24 08:31:45;;;;;;;19.23;10.17;;;3.40;1.00;;;;;;4896037;28;20662;-76
2021/01/24 08:34:09;;;;;;;17.47;10.73;;;3.40;1.00;;;;;;4909283;28;20188;-78
2021/01/24 08:36:31;;;;;;;20.60;11.57;;;;;;;;;;4912621;28;20203;-78
2021/01/24 08:38:56;;;;;;;17.07;10.73;;;3.30;1.00;;;;;;4915569;28;20245;-78
2021/01/24 08:41:18;;;;;;;15.83;10.00;;;3.30;1.00;;;;;;4898366;28;20214;-79
2021/01/24 08:43:41;;;;;;;18.37;9.97;;;3.30;1.00;;;;;;4898953;28;20189;-79
2021/01/24 08:46:23;;;;;;;18.10;10.27;;;3.20;1.00;;;;;;4882460;28;20186;-77
2021/01/24 08:48:46;;;;;;;21.37;10.77;;;;;;;;;;4915200;28;20249;-78
2021/01/24 08:51:09;;;;;;;19.53;10.47;;;;;;;;;;4915460;28;20226;-78
2021/01/24 08:53:31;;;;;;;17.70;10.20;;;3.30;1.00;;;;;;4916366;28;20175;-79
2021/01/24 08:55:54;;;;;;;23.37;11.87;;;3.00;1.00;;;;;;4916382;28;20564;-77
2021/01/24 08:58:25;;;;;;;13.63;9.03;;;3.00;1.00;;;;;;4917009;28;20192;-78
2021/01/24 09:01:02;;;;;;;27.33;11.50;;;2.90;1.00;;;;;;4916400;28;20253;-77
2021/01/24 09:03:25;;;;;;;16.33;9.33;;;;;;;;;;4916097;28;20665;-79
2021/01/24 09:05:46;;;;;;;20.97;9.90;;;3.00;1.00;;;;;;4917519;28;20181;-78
2021/01/24 09:08:28;;;;;;;18.40;10.03;;;3.10;1.00;;;;;;4897132;28;20212;-79
2021/01/24 09:10:56;;;;;;;19.77;10.43;;;2.90;1.00;;;;;;4892666;28;20241;-79
2021/01/24 09:13:19;;;;;;;17.30;9.93;;;;;;;;;;4916360;28;20242;-79
2021/01/24 09:15:41;;;;;;;19.37;9.93;;;;;;;;;;4916404;28;20199;-79
2021/01/24 09:18:04;;;;;;;16.30;9.57;;;;;;;;;;4918006;28;20188;-75
2021/01/24 09:20:27;;;;;;;16.27;9.10;;;3.20;1.00;;;;;;4916796;28;20261;-79
2021/01/24 09:22:50;;;;;;;17.47;8.93;;;3.40;1.00;;;;;;4916247;28;20701;-78
2021/01/24 09:25:12;;;;;;;15.30;9.10;;;3.00;1.00;;;;;;4917909;28;20184;-77
2021/01/24 09:27:36;;;;;;;15.40;9.20;;;2.90;1.00;;;;;;4916230;28;20372;-78
2021/01/24 09:29:58;;;;;;;16.23;9.67;;;;;;;;;;4915898;28;20219;-79
2021/01/24 09:32:21;;;;;;;15.87;9.30;;;2.80;1.00;;;;;;4914979;28;20281;-79
2021/01/24 09:34:43;;;;;;;22.73;10.03;;;;;;;;;;4916514;28;20579;-78
2021/01/24 09:37:06;;;;;;;18.03;9.80;;;;;;;;;;4915478;28;20651;-79
2021/01/24 09:39:31;;;;;;;18.80;9.93;;;;;;;;;;4916782;28;20184;-80
2021/01/24 09:41:54;;;;;;;16.47;9.13;;;;;;;;;;4899177;28;20725;-78
2021/01/24 09:44:20;;;;;;;17.10;9.80;;;3.50;1.00;;;;;;4916813;28;20190;-78
2021/01/24 09:46:43;;;;;;;25.00;11.93;;;;;;;;;;4914660;28;20701;-78
2021/01/24 09:49:05;;;;;;;21.07;11.10;;;3.80;1.00;;;;;;4912897;28;20220;-81
2021/01/24 09:51:28;;;;;;;22.70;11.73;;;;;;;;;;4934991;27;20195;-79
2021/01/24 09:53:51;;;;;;;23.13;11.33;;;3.50;1.00;;;;;;4910685;28;20188;-79
2021/01/24 09:56:14;;;;;;;22.27;11.67;;;;;;;;;;4897425;28;20193;-79
2021/01/24 09:58:36;;;;;;;20.37;11.00;;;;;;;;;;4915184;28;20192;-78
2021/01/24 10:00:59;;;;;;;23.73;12.57;;;3.80;1.00;;;;;;4912057;28;20729;-79
2021/01/24 10:03:21;;;;;;;22.20;12.57;;;4.10;1.00;;;;;;4914295;28;20707;-78
2021/01/24 10:05:43;;;;;;;22.80;12.23;;;4.10;1.00;;;;;;4914650;28;20204;-78
2021/01/24 10:08:05;;;;;;;21.87;12.03;;;4.20;1.00;;;;;;4916227;28;20229;-80
2021/01/24 10:10:27;;;;;;;20.63;12.47;;;4.30;99.90;;;;;;4916269;28;20241;-80
2021/01/24 10:12:49;;;;;;;23.87;12.20;;;3.90;1.00;;;;;;4915570;28;20192;-78
2021/01/24 10:15:12;;;;;;;21.10;12.57;;;5.50;99.90;;;;;;4914765;28;20200;-80
2021/01/24 10:17:35;;;;;;;21.97;13.17;;;4.30;99.90;;;;;;4915637;28;20195;-77
2021/01/24 10:19:57;;;;;;;20.23;12.73;;;;;;;;;;4915995;28;20188;-79
2021/01/24 10:22:19;;;;;;;23.43;13.33;;;4.10;1.00;;;;;;4915739;28;20269;-79
2021/01/24 10:24:42;;;;;;;29.40;14.20;;;;;;;;;;4914063;28;20172;-80
2021/01/24 10:27:04;;;;;;;25.90;13.00;;;;;;;;;;4897029;28;20717;-78
2021/01/24 10:29:27;;;;;;;23.17;14.20;;;4.30;1.00;;;;;;4914204;28;20250;-79
2021/01/24 10:31:51;;;;;;;31.27;16.47;;;4.20;52.60;;;;;;4920306;28;20225;-73
2021/01/24 10:34:14;;;;;;;27.70;14.47;;;4.20;1.00;;;;;;4902665;28;20203;-80
2021/01/24 10:36:36;;;;;;;26.47;14.90;;;4.20;99.90;;;;;;4895768;28;20670;-78
2021/01/24 10:38:59;;;;;;;24.97;14.33;;;;;;;;;;4919708;28;20187;-79
2021/01/24 10:41:21;;;;;;;25.23;13.43;;;4.20;1.00;;;;;;4914299;28;20184;-77
2021/01/24 10:43:43;;;;;;;27.40;13.30;;;;;;;;;;4913194;28;20246;-77
2021/01/24 10:46:05;;;;;;;21.40;12.53;;;;;;;;;;4896560;28;20197;-78
2021/01/24 10:48:27;;;;;;;22.60;12.87;;;4.50;1.00;;;;;;4914955;28;20192;-78
2021/01/24 10:50:51;;;;;;;25.07;12.43;;;4.50;1.00;;;;;;4913729;28;20681;-77
2021/01/24 10:53:13;;;;;;;20.40;11.07;;;4.40;1.00;;;;;;4913190;28;20204;-78
2021/01/24 10:55:36;;;;;;;17.37;9.30;;;4.40;99.90;;;;;;4901361;28;20192;-77
2021/01/24 10:57:58;;;;;;;16.53;10.13;;;4.30;99.90;;;;;;4913262;28;20225;-77
2021/01/24 11:00:21;;;;;;;22.83;10.33;;;4.30;99.90;;;;;;4913443;28;20241;-76
2021/01/24 11:02:43;;;;;;;23.47;10.20;;;4.30;1.00;;;;;;4912924;28;20226;-78
2021/01/24 11:05:07;;;;;;;15.23;8.53;;;4.10;1.00;;;;;;4913156;28;20200;-76
2021/01/24 11:07:30;;;;;;;15.80;8.40;;;4.00;1.00;;;;;;4912422;28;20616;-80
2021/01/24 11:09:52;;;;;;;22.13;9.97;;;3.10;99.90;;;;;;4914293;28;20208;-76
2021/01/24 11:12:15;;;;;;;17.03;8.73;;;;;;;;;;4913077;28;20635;-78
2021/01/24 11:14:37;;;;;;;15.50;9.13;;;4.00;1.00;;;;;;4896118;28;20735;-77
2021/01/24 11:16:59;;;;;;;20.33;9.53;;;4.60;1.00;;;;;;4911774;28;20212;-76
2021/01/24 11:19:21;;;;;;;19.00;9.57;;;4.80;1.00;;;;;;4913407;28;20192;-78
2021/01/24 11:21:43;;;;;;;20.37;8.70;;;4.70;99.90;;;;;;4914385;28;20222;-78
2021/01/24 11:24:07;;;;;;;12.50;7.13;;;4.40;1.00;;;;;;4914103;28;20662;-76
2021/01/24 11:26:30;;;;;;;16.73;9.00;;;;;;;;;;4912609;28;20192;-79
2021/01/24 11:28:52;;;;;;;24.30;9.90;;;4.30;1.00;;;;;;4912703;28;20216;-76
2021/01/24 11:31:15;;;;;;;16.60;8.23;;;;;;;;;;4914151;28;20244;-78
2021/01/24 11:33:37;;;;;;;15.37;9.00;;;4.40;36.10;;;;;;4913688;28;20188;-77
2021/01/24 11:35:59;;;;;;;17.17;7.90;;;4.20;99.90;;;;;;4912562;28;20596;-79
2021/01/24 11:38:22;;;;;;;15.97;7.77;;;;;;;;;;4914557;28;20196;-78
2021/01/24 11:40:45;;;;;;;17.90;8.50;;;4.10;99.90;;;;;;4913829;28;20705;-75
2021/01/24 11:43:07;;;;;;;17.17;8.57;;;;;;;;;;4914286;28;20194;-79
2021/01/24 11:45:31;;;;;;;16.27;7.13;;;4.00;1.00;;;;;;4902672;28;20191;-77
2021/01/24 11:47:55;;;;;;;14.30;5.63;;;;;;;;;;4914410;28;20184;-78
2021/01/24 11:50:17;;;;;;;12.27;4.73;;;;;;;;;;4911534;28;20211;-76
2021/01/24 11:52:42;;;;;;;15.33;5.47;;;4.30;99.90;;;;;;4913834;28;20272;-79
2021/01/24 11:55:05;;;;;;;10.10;4.23;;;4.40;99.90;;;;;;4912703;28;20204;-79
2021/01/24 11:57:28;;;;;;;9.97;4.57;;;4.10;99.90;;;;;;4879132;28;20193;-79
2021/01/24 11:59:50;;;;;;;15.87;6.77;;;4.30;99.90;;;;;;4913897;28;20229;-76
2021/01/24 12:02:12;;;;;;;11.83;4.93;;;5.00;99.90;;;;;;4910398;28;20200;-77
2021/01/24 12:04:34;;;;;;;9.13;5.17;;;4.50;1.00;;;;;;4912034;28;20180;-76
2021/01/24 12:06:56;;;;;;;11.73;5.20;;;;;;;;;;4895388;28;20793;-75
2021/01/24 12:09:19;;;;;;;11.60;5.60;;;;;;;;;;4913647;28;20539;-74
2021/01/24 12:11:41;;;;;;;17.70;7.47;;;;;;;;;;4913413;28;20241;-76
2021/01/24 12:14:04;;;;;;;15.00;6.83;;;4.60;1.00;;;;;;4916649;28;20192;-75
2021/01/24 12:16:26;;;;;;;10.80;4.83;;;4.80;99.90;;;;;;4916417;28;20265;-78
2021/01/24 12:18:49;;;;;;;12.73;4.70;;;;;;;;;;4937070;27;20203;-75
2021/01/24 12:21:11;;;;;;;11.67;5.50;;;6.10;1.00;;;;;;4903966;28;20690;-78
2021/01/24 12:23:34;;;;;;;8.83;3.73;;;;;;;;;;4916365;28;20758;-76
2021/01/24 12:25:56;;;;;;;5.97;2.90;;;;;;;;;;4899468;28;20193;-76
2021/01/24 12:28:21;;;;;;;6.93;3.33;;;7.60;99.90;;;;;;4918031;28;20206;-76
2021/01/24 12:30:44;;;;;;;15.40;4.03;;;9.10;1.00;;;;;;4899198;28;20224;-76
2021/01/24 12:33:10;;;;;;;9.23;3.50;;;;;;;;;;4899452;28;20196;-77
2021/01/24 12:35:32;;;;;;;10.37;3.37;;;10.60;1.00;;;;;;4917363;28;20188;-77
2021/01/24 12:37:55;;;;;;;7.07;2.70;;;11.10;99.90;;;;;;4897812;28;20728;-77
2021/01/24 12:40:20;;;;;;;7.47;2.70;;;11.10;1.00;;;;;;4916978;28;20192;-77
2021/01/24 12:42:42;;;;;;;14.30;3.83;;;;;;;;;;4915346;28;20297;-76